sensor_id;sensor_type;location;lat;lon;timestamp;P1;durP1;ratioP1;P2;durP2;ratioP2
11303;SDS011;5707;49.588;12.148;2024-01-27T00:01:42;4.63;;;1.85;;
11303;SDS011;5707;49.588;12.148;2024-01-27T00:04:08;3.95;;;1.13;;
11303;SDS011;5707;49.588;12.148;2024-01-27T00:06:33;2.67;;;1.20;;
11303;SDS011;5707;49.588;12.148;2024-01-27T00:08:59;3.25;;;1.35;;
11303;SDS011;5707;49.588;12.148;2024-01-27T00:11:24;1.80;;;1.08;;
11303;SDS011;5707;49.588;12.148;2024-01-27T00:13:50;2.30;;;1.50;;
11303;SDS011;5707;49.588;12.148;2024-01-27T00:16:15;6.30;;;2.35;;
11303;SDS011;5707;49.588;12.148;2024-01-27T00:18:41;4.28;;;1.98;;
11303;SDS011;5707;49.588;12.148;2024-01-27T00:21:07;3.85;;;1.27;;
11303;SDS011;5707;49.588;12.148;2024-01-27T00:23:32;10.38;;;1.67;;
11303;SDS011;5707;49.588;12.148;2024-01-27T00:25:59;1.98;;;1.13;;
11303;SDS011;5707;49.588;12.148;2024-01-27T00:28:25;2.83;;;1.38;;
11303;SDS011;5707;49.588;12.148;2024-01-27T00:30:51;2.10;;;1.10;;
11303;SDS011;5707;49.588;12.148;2024-01-27T00:33:16;2.17;;;1.20;;
11303;SDS011;5707;49.588;12.148;2024-01-27T00:35:42;2.60;;;1.35;;
11303;SDS011;5707;49.588;12.148;2024-01-27T00:38:08;6.50;;;0.95;;
11303;SDS011;5707;49.588;12.148;2024-01-27T00:40:33;2.97;;;1.40;;
11303;SDS011;5707;49.588;12.148;2024-01-27T00:42:59;4.68;;;1.20;;
11303;SDS011;5707;49.588;12.148;2024-01-27T00:45:27;2.03;;;1.42;;
11303;SDS011;5707;49.588;12.148;2024-01-27T00:47:53;2.53;;;1.30;;
11303;SDS011;5707;49.588;12.148;2024-01-27T00:50:19;5.43;;;1.40;;
11303;SDS011;5707;49.588;12.148;2024-01-27T00:52:44;3.05;;;1.00;;
11303;SDS011;5707;49.588;12.148;2024-01-27T00:55:10;5.10;;;1.50;;
11303;SDS011;5707;49.588;12.148;2024-01-27T00:57:36;3.65;;;1.48;;
11303;SDS011;5707;49.588;12.148;2024-01-27T01:00:04;2.35;;;1.42;;
11303;SDS011;5707;49.588;12.148;2024-01-27T01:02:31;2.92;;;1.33;;
11303;SDS011;5707;49.588;12.148;2024-01-27T01:04:57;2.08;;;1.35;;
11303;SDS011;5707;49.588;12.148;2024-01-27T01:07:22;5.82;;;1.35;;
11303;SDS011;5707;49.588;12.148;2024-01-27T01:09:48;3.13;;;1.15;;
11303;SDS011;5707;49.588;12.148;2024-01-27T01:12:14;2.40;;;1.10;;
11303;SDS011;5707;49.588;12.148;2024-01-27T01:14:40;4.20;;;1.38;;
11303;SDS011;5707;49.588;12.148;2024-01-27T01:17:06;3.53;;;1.17;;
11303;SDS011;5707;49.588;12.148;2024-01-27T01:19:32;2.53;;;1.55;;
11303;SDS011;5707;49.588;12.148;2024-01-27T01:21:57;2.63;;;1.05;;
11303;SDS011;5707;49.588;12.148;2024-01-27T01:24:23;3.88;;;1.27;;
11303;SDS011;5707;49.588;12.148;2024-01-27T01:26:49;3.63;;;1.45;;
11303;SDS011;5707;49.588;12.148;2024-01-27T01:29:14;3.60;;;1.08;;
11303;SDS011;5707;49.588;12.148;2024-01-27T01:31:42;3.22;;;1.20;;
11303;SDS011;5707;49.588;12.148;2024-01-27T01:34:08;3.50;;;1.25;;
11303;SDS011;5707;49.588;12.148;2024-01-27T01:36:33;4.30;;;1.95;;
11303;SDS011;5707;49.588;12.148;2024-01-27T01:38:59;1.50;;;1.20;;
11303;SDS011;5707;49.588;12.148;2024-01-27T01:41:24;2.85;;;1.30;;
11303;SDS011;5707;49.588;12.148;2024-01-27T01:43:50;2.22;;;1.45;;
11303;SDS011;5707;49.588;12.148;2024-01-27T01:46:16;3.42;;;1.00;;
11303;SDS011;5707;49.588;12.148;2024-01-27T01:48:41;3.00;;;1.50;;
11303;SDS011;5707;49.588;12.148;2024-01-27T01:51:08;2.80;;;1.33;;
11303;SDS011;5707;49.588;12.148;2024-01-27T01:53:34;5.03;;;1.25;;
11303;SDS011;5707;49.588;12.148;2024-01-27T01:55:59;3.17;;;1.02;;
11303;SDS011;5707;49.588;12.148;2024-01-27T01:58:26;4.53;;;1.20;;
11303;SDS011;5707;49.588;12.148;2024-01-27T02:00:59;4.00;;;1.40;;
11303;SDS011;5707;49.588;12.148;2024-01-27T02:03:27;2.33;;;1.27;;
11303;SDS011;5707;49.588;12.148;2024-01-27T02:05:53;3.58;;;1.60;;
11303;SDS011;5707;49.588;12.148;2024-01-27T02:08:20;3.67;;;1.45;;
11303;SDS011;5707;49.588;12.148;2024-01-27T02:10:45;4.30;;;1.80;;
11303;SDS011;5707;49.588;12.148;2024-01-27T02:13:21;3.92;;;1.33;;
11303;SDS011;5707;49.588;12.148;2024-01-27T02:15:48;2.63;;;1.35;;
11303;SDS011;5707;49.588;12.148;2024-01-27T02:18:15;3.80;;;1.58;;
11303;SDS011;5707;49.588;12.148;2024-01-27T02:20:41;7.78;;;1.63;;
11303;SDS011;5707;49.588;12.148;2024-01-27T02:23:07;1.35;;;1.10;;
11303;SDS011;5707;49.588;12.148;2024-01-27T02:25:33;3.67;;;1.65;;
11303;SDS011;5707;49.588;12.148;2024-01-27T02:28:00;4.13;;;1.67;;
11303;SDS011;5707;49.588;12.148;2024-01-27T02:30:27;4.35;;;1.75;;
11303;SDS011;5707;49.588;12.148;2024-01-27T02:32:53;4.13;;;1.48;;
11303;SDS011;5707;49.588;12.148;2024-01-27T02:35:20;2.47;;;1.45;;
11303;SDS011;5707;49.588;12.148;2024-01-27T02:37:46;3.08;;;1.50;;
11303;SDS011;5707;49.588;12.148;2024-01-27T02:40:11;3.58;;;1.70;;
11303;SDS011;5707;49.588;12.148;2024-01-27T02:42:37;3.92;;;1.65;;
11303;SDS011;5707;49.588;12.148;2024-01-27T02:45:03;3.17;;;1.52;;
11303;SDS011;5707;49.588;12.148;2024-01-27T02:47:29;5.93;;;2.00;;
11303;SDS011;5707;49.588;12.148;2024-01-27T02:49:55;3.28;;;1.48;;
11303;SDS011;5707;49.588;12.148;2024-01-27T02:52:21;5.88;;;1.40;;
11303;SDS011;5707;49.588;12.148;2024-01-27T02:54:46;2.55;;;1.30;;
11303;SDS011;5707;49.588;12.148;2024-01-27T02:57:12;6.88;;;1.88;;
11303;SDS011;5707;49.588;12.148;2024-01-27T02:59:38;2.88;;;1.27;;
11303;SDS011;5707;49.588;12.148;2024-01-27T03:02:04;3.17;;;1.60;;
11303;SDS011;5707;49.588;12.148;2024-01-27T03:04:30;2.53;;;1.73;;
11303;SDS011;5707;49.588;12.148;2024-01-27T03:06:56;4.25;;;1.83;;
11303;SDS011;5707;49.588;12.148;2024-01-27T03:09:21;2.95;;;1.48;;
11303;SDS011;5707;49.588;12.148;2024-01-27T03:11:47;2.42;;;1.60;;
11303;SDS011;5707;49.588;12.148;2024-01-27T03:14:13;3.65;;;1.27;;
11303;SDS011;5707;49.588;12.148;2024-01-27T03:16:38;3.85;;;1.88;;
11303;SDS011;5707;49.588;12.148;2024-01-27T03:19:04;2.47;;;1.73;;
11303;SDS011;5707;49.588;12.148;2024-01-27T03:21:29;3.60;;;1.63;;
11303;SDS011;5707;49.588;12.148;2024-01-27T03:23:55;3.50;;;1.65;;
11303;SDS011;5707;49.588;12.148;2024-01-27T03:26:21;4.35;;;1.58;;
11303;SDS011;5707;49.588;12.148;2024-01-27T03:28:46;4.32;;;1.67;;
11303;SDS011;5707;49.588;12.148;2024-01-27T03:31:12;4.45;;;1.95;;
11303;SDS011;5707;49.588;12.148;2024-01-27T03:33:38;3.35;;;1.85;;
11303;SDS011;5707;49.588;12.148;2024-01-27T03:36:08;8.13;;;2.10;;
11303;SDS011;5707;49.588;12.148;2024-01-27T03:38:35;2.42;;;1.80;;
11303;SDS011;5707;49.588;12.148;2024-01-27T03:41:01;7.50;;;1.90;;
11303;SDS011;5707;49.588;12.148;2024-01-27T03:43:27;5.85;;;1.90;;
11303;SDS011;5707;49.588;12.148;2024-01-27T03:45:52;4.18;;;1.73;;
11303;SDS011;5707;49.588;12.148;2024-01-27T03:48:18;7.22;;;1.77;;
11303;SDS011;5707;49.588;12.148;2024-01-27T03:50:44;3.85;;;1.50;;
11303;SDS011;5707;49.588;12.148;2024-01-27T03:53:09;4.45;;;1.67;;
11303;SDS011;5707;49.588;12.148;2024-01-27T03:55:35;3.47;;;1.75;;
11303;SDS011;5707;49.588;12.148;2024-01-27T03:58:00;2.20;;;1.90;;
11303;SDS011;5707;49.588;12.148;2024-01-27T04:00:26;5.13;;;1.65;;
11303;SDS011;5707;49.588;12.148;2024-01-27T04:02:54;2.25;;;1.50;;
11303;SDS011;5707;49.588;12.148;2024-01-27T04:05:20;4.38;;;1.58;;
11303;SDS011;5707;49.588;12.148;2024-01-27T04:07:45;3.25;;;1.83;;
11303;SDS011;5707;49.588;12.148;2024-01-27T04:10:11;4.22;;;1.33;;
11303;SDS011;5707;49.588;12.148;2024-01-27T04:12:36;1.88;;;1.42;;
11303;SDS011;5707;49.588;12.148;2024-01-27T04:15:02;4.93;;;1.50;;
11303;SDS011;5707;49.588;12.148;2024-01-27T04:17:28;3.90;;;1.55;;
11303;SDS011;5707;49.588;12.148;2024-01-27T04:19:53;4.63;;;1.58;;
11303;SDS011;5707;49.588;12.148;2024-01-27T04:22:19;3.53;;;1.25;;
11303;SDS011;5707;49.588;12.148;2024-01-27T04:24:44;3.95;;;1.50;;
11303;SDS011;5707;49.588;12.148;2024-01-27T04:27:10;2.35;;;1.60;;
11303;SDS011;5707;49.588;12.148;2024-01-27T04:29:36;5.47;;;1.33;;
11303;SDS011;5707;49.588;12.148;2024-01-27T04:32:01;5.57;;;1.70;;
11303;SDS011;5707;49.588;12.148;2024-01-27T04:34:27;3.67;;;1.80;;
11303;SDS011;5707;49.588;12.148;2024-01-27T04:36:52;2.28;;;1.80;;
11303;SDS011;5707;49.588;12.148;2024-01-27T04:39:18;2.42;;;1.40;;
11303;SDS011;5707;49.588;12.148;2024-01-27T04:41:43;7.15;;;1.85;;
11303;SDS011;5707;49.588;12.148;2024-01-27T04:44:09;5.15;;;1.75;;
11303;SDS011;5707;49.588;12.148;2024-01-27T04:46:34;6.22;;;2.08;;
11303;SDS011;5707;49.588;12.148;2024-01-27T04:49:00;5.53;;;1.95;;
11303;SDS011;5707;49.588;12.148;2024-01-27T04:51:26;5.80;;;2.58;;
11303;SDS011;5707;49.588;12.148;2024-01-27T04:53:51;3.05;;;1.80;;
11303;SDS011;5707;49.588;12.148;2024-01-27T04:56:17;2.95;;;2.13;;
11303;SDS011;5707;49.588;12.148;2024-01-27T04:58:42;4.22;;;1.88;;
11303;SDS011;5707;49.588;12.148;2024-01-27T05:01:08;3.13;;;1.98;;
11303;SDS011;5707;49.588;12.148;2024-01-27T05:03:34;3.70;;;2.13;;
11303;SDS011;5707;49.588;12.148;2024-01-27T05:06:00;4.88;;;2.22;;
11303;SDS011;5707;49.588;12.148;2024-01-27T05:08:26;7.25;;;2.00;;
11303;SDS011;5707;49.588;12.148;2024-01-27T05:10:51;3.30;;;1.83;;
11303;SDS011;5707;49.588;12.148;2024-01-27T05:13:17;3.95;;;2.03;;
11303;SDS011;5707;49.588;12.148;2024-01-27T05:15:42;3.92;;;1.95;;
11303;SDS011;5707;49.588;12.148;2024-01-27T05:18:08;2.80;;;1.73;;
11303;SDS011;5707;49.588;12.148;2024-01-27T05:20:35;4.63;;;1.83;;
11303;SDS011;5707;49.588;12.148;2024-01-27T05:23:00;3.88;;;1.90;;
11303;SDS011;5707;49.588;12.148;2024-01-27T05:25:26;3.10;;;1.40;;
11303;SDS011;5707;49.588;12.148;2024-01-27T05:27:51;3.88;;;1.95;;
11303;SDS011;5707;49.588;12.148;2024-01-27T05:30:17;6.55;;;3.53;;
11303;SDS011;5707;49.588;12.148;2024-01-27T05:32:43;4.15;;;1.85;;
11303;SDS011;5707;49.588;12.148;2024-01-27T05:35:08;4.93;;;2.13;;
11303;SDS011;5707;49.588;12.148;2024-01-27T05:37:35;3.08;;;2.03;;
11303;SDS011;5707;49.588;12.148;2024-01-27T05:40:01;2.33;;;2.13;;
11303;SDS011;5707;49.588;12.148;2024-01-27T05:42:27;3.15;;;1.80;;
11303;SDS011;5707;49.588;12.148;2024-01-27T05:44:53;2.97;;;2.03;;
11303;SDS011;5707;49.588;12.148;2024-01-27T05:47:18;3.00;;;1.73;;
11303;SDS011;5707;49.588;12.148;2024-01-27T05:49:44;5.30;;;2.90;;
11303;SDS011;5707;49.588;12.148;2024-01-27T05:52:10;3.97;;;1.85;;
11303;SDS011;5707;49.588;12.148;2024-01-27T05:54:35;7.30;;;2.03;;
11303;SDS011;5707;49.588;12.148;2024-01-27T05:57:01;5.15;;;1.70;;
11303;SDS011;5707;49.588;12.148;2024-01-27T05:59:28;4.25;;;1.85;;
11303;SDS011;5707;49.588;12.148;2024-01-27T06:01:53;7.03;;;1.92;;
11303;SDS011;5707;49.588;12.148;2024-01-27T06:04:19;2.42;;;1.70;;
11303;SDS011;5707;49.588;12.148;2024-01-27T06:06:44;2.03;;;1.63;;
11303;SDS011;5707;49.588;12.148;2024-01-27T06:09:10;3.85;;;2.33;;
11303;SDS011;5707;49.588;12.148;2024-01-27T06:11:36;3.42;;;2.55;;
11303;SDS011;5707;49.588;12.148;2024-01-27T06:14:02;2.17;;;1.95;;
11303;SDS011;5707;49.588;12.148;2024-01-27T06:16:27;3.58;;;1.90;;
11303;SDS011;5707;49.588;12.148;2024-01-27T06:18:53;2.35;;;1.60;;
11303;SDS011;5707;49.588;12.148;2024-01-27T06:21:19;5.70;;;2.83;;
11303;SDS011;5707;49.588;12.148;2024-01-27T06:23:45;4.60;;;2.10;;
11303;SDS011;5707;49.588;12.148;2024-01-27T06:26:12;4.93;;;2.33;;
11303;SDS011;5707;49.588;12.148;2024-01-27T06:28:39;3.67;;;1.90;;
11303;SDS011;5707;49.588;12.148;2024-01-27T06:31:05;3.40;;;2.60;;
11303;SDS011;5707;49.588;12.148;2024-01-27T06:33:32;7.63;;;2.30;;
11303;SDS011;5707;49.588;12.148;2024-01-27T06:35:59;6.32;;;2.45;;
11303;SDS011;5707;49.588;12.148;2024-01-27T06:38:25;4.28;;;1.80;;
11303;SDS011;5707;49.588;12.148;2024-01-27T06:40:51;3.05;;;1.80;;
11303;SDS011;5707;49.588;12.148;2024-01-27T06:43:17;5.93;;;2.83;;
11303;SDS011;5707;49.588;12.148;2024-01-27T06:45:42;6.78;;;3.40;;
11303;SDS011;5707;49.588;12.148;2024-01-27T06:48:08;3.38;;;2.70;;
11303;SDS011;5707;49.588;12.148;2024-01-27T06:50:33;3.10;;;2.22;;
11303;SDS011;5707;49.588;12.148;2024-01-27T06:52:59;5.70;;;3.60;;
11303;SDS011;5707;49.588;12.148;2024-01-27T06:55:26;2.72;;;2.20;;
11303;SDS011;5707;49.588;12.148;2024-01-27T06:57:52;6.18;;;2.90;;
11303;SDS011;5707;49.588;12.148;2024-01-27T07:00:18;4.55;;;2.60;;
11303;SDS011;5707;49.588;12.148;2024-01-27T07:02:44;5.18;;;3.00;;
11303;SDS011;5707;49.588;12.148;2024-01-27T07:05:10;3.97;;;2.83;;
11303;SDS011;5707;49.588;12.148;2024-01-27T07:07:37;4.15;;;3.22;;
11303;SDS011;5707;49.588;12.148;2024-01-27T07:10:03;5.10;;;3.03;;
11303;SDS011;5707;49.588;12.148;2024-01-27T07:12:29;3.72;;;2.55;;
11303;SDS011;5707;49.588;12.148;2024-01-27T07:14:54;3.17;;;2.72;;
11303;SDS011;5707;49.588;12.148;2024-01-27T07:17:20;3.22;;;2.95;;
11303;SDS011;5707;49.588;12.148;2024-01-27T07:19:46;5.75;;;4.00;;
11303;SDS011;5707;49.588;12.148;2024-01-27T07:22:11;6.35;;;3.13;;
11303;SDS011;5707;49.588;12.148;2024-01-27T07:24:37;3.40;;;2.50;;
11303;SDS011;5707;49.588;12.148;2024-01-27T07:27:04;6.50;;;3.65;;
11303;SDS011;5707;49.588;12.148;2024-01-27T07:29:29;4.95;;;3.28;;
11303;SDS011;5707;49.588;12.148;2024-01-27T07:31:55;6.72;;;3.47;;
11303;SDS011;5707;49.588;12.148;2024-01-27T07:34:21;3.70;;;2.60;;
11303;SDS011;5707;49.588;12.148;2024-01-27T07:36:46;6.30;;;2.80;;
11303;SDS011;5707;49.588;12.148;2024-01-27T07:39:15;4.60;;;2.42;;
11303;SDS011;5707;49.588;12.148;2024-01-27T07:41:41;4.35;;;2.85;;
11303;SDS011;5707;49.588;12.148;2024-01-27T07:44:11;3.83;;;3.33;;
11303;SDS011;5707;49.588;12.148;2024-01-27T07:46:39;5.82;;;4.80;;
11303;SDS011;5707;49.588;12.148;2024-01-27T07:49:05;8.75;;;5.20;;
11303;SDS011;5707;49.588;12.148;2024-01-27T07:51:31;8.90;;;6.10;;
11303;SDS011;5707;49.588;12.148;2024-01-27T07:53:57;6.57;;;5.93;;
11303;SDS011;5707;49.588;12.148;2024-01-27T07:56:24;9.82;;;5.65;;
11303;SDS011;5707;49.588;12.148;2024-01-27T07:58:49;6.25;;;5.30;;
11303;SDS011;5707;49.588;12.148;2024-01-27T08:01:18;7.00;;;6.30;;
11303;SDS011;5707;49.588;12.148;2024-01-27T08:03:44;7.82;;;6.93;;
11303;SDS011;5707;49.588;12.148;2024-01-27T08:06:14;7.50;;;6.18;;
11303;SDS011;5707;49.588;12.148;2024-01-27T08:08:43;7.72;;;5.15;;
11303;SDS011;5707;49.588;12.148;2024-01-27T08:11:12;6.65;;;3.72;;
11303;SDS011;5707;49.588;12.148;2024-01-27T08:13:39;11.15;;;3.47;;
11303;SDS011;5707;49.588;12.148;2024-01-27T08:16:05;6.28;;;3.30;;
11303;SDS011;5707;49.588;12.148;2024-01-27T08:18:31;6.63;;;3.05;;
11303;SDS011;5707;49.588;12.148;2024-01-27T08:20:56;5.13;;;3.50;;
11303;SDS011;5707;49.588;12.148;2024-01-27T08:23:23;8.13;;;4.88;;
11303;SDS011;5707;49.588;12.148;2024-01-27T08:25:48;7.03;;;4.32;;
11303;SDS011;5707;49.588;12.148;2024-01-27T08:28:17;6.68;;;3.72;;
11303;SDS011;5707;49.588;12.148;2024-01-27T08:30:43;6.05;;;3.15;;
11303;SDS011;5707;49.588;12.148;2024-01-27T08:33:08;4.63;;;2.97;;
11303;SDS011;5707;49.588;12.148;2024-01-27T08:35:34;5.60;;;3.17;;
11303;SDS011;5707;49.588;12.148;2024-01-27T08:37:59;6.57;;;2.55;;
11303;SDS011;5707;49.588;12.148;2024-01-27T08:40:25;5.03;;;3.22;;
11303;SDS011;5707;49.588;12.148;2024-01-27T08:42:51;5.63;;;2.78;;
11303;SDS011;5707;49.588;12.148;2024-01-27T08:45:16;8.85;;;3.58;;
11303;SDS011;5707;49.588;12.148;2024-01-27T08:47:42;7.90;;;5.60;;
11303;SDS011;5707;49.588;12.148;2024-01-27T08:50:08;10.35;;;6.30;;
11303;SDS011;5707;49.588;12.148;2024-01-27T08:52:35;11.07;;;6.57;;
11303;SDS011;5707;49.588;12.148;2024-01-27T08:55:01;7.97;;;4.13;;
11303;SDS011;5707;49.588;12.148;2024-01-27T08:57:26;6.75;;;3.45;;
11303;SDS011;5707;49.588;12.148;2024-01-27T08:59:52;4.50;;;2.53;;
11303;SDS011;5707;49.588;12.148;2024-01-27T09:02:17;8.05;;;3.47;;
11303;SDS011;5707;49.588;12.148;2024-01-27T09:04:43;4.18;;;2.72;;
11303;SDS011;5707;49.588;12.148;2024-01-27T09:07:09;3.67;;;1.92;;
11303;SDS011;5707;49.588;12.148;2024-01-27T09:09:34;6.38;;;3.08;;
11303;SDS011;5707;49.588;12.148;2024-01-27T09:12:00;4.25;;;2.33;;
11303;SDS011;5707;49.588;12.148;2024-01-27T09:14:25;6.13;;;2.42;;
11303;SDS011;5707;49.588;12.148;2024-01-27T09:16:51;7.55;;;2.70;;
11303;SDS011;5707;49.588;12.148;2024-01-27T09:19:17;6.47;;;2.08;;
11303;SDS011;5707;49.588;12.148;2024-01-27T09:21:43;5.65;;;2.78;;
11303;SDS011;5707;49.588;12.148;2024-01-27T09:24:08;5.88;;;1.98;;
11303;SDS011;5707;49.588;12.148;2024-01-27T09:26:34;6.05;;;2.05;;
11303;SDS011;5707;49.588;12.148;2024-01-27T09:28:59;3.70;;;2.10;;
11303;SDS011;5707;49.588;12.148;2024-01-27T09:31:25;6.35;;;2.00;;
11303;SDS011;5707;49.588;12.148;2024-01-27T09:33:52;3.08;;;1.92;;
11303;SDS011;5707;49.588;12.148;2024-01-27T09:36:18;3.60;;;2.47;;
11303;SDS011;5707;49.588;12.148;2024-01-27T09:38:45;5.80;;;2.15;;
11303;SDS011;5707;49.588;12.148;2024-01-27T09:41:12;7.05;;;2.30;;
11303;SDS011;5707;49.588;12.148;2024-01-27T09:43:39;5.43;;;3.70;;
11303;SDS011;5707;49.588;12.148;2024-01-27T09:46:09;7.32;;;4.93;;
11303;SDS011;5707;49.588;12.148;2024-01-27T09:48:39;8.23;;;5.03;;
11303;SDS011;5707;49.588;12.148;2024-01-27T09:51:05;5.15;;;2.65;;
11303;SDS011;5707;49.588;12.148;2024-01-27T09:53:32;8.63;;;2.45;;
11303;SDS011;5707;49.588;12.148;2024-01-27T09:55:57;6.57;;;2.08;;
11303;SDS011;5707;49.588;12.148;2024-01-27T09:58:24;8.73;;;2.50;;
11303;SDS011;5707;49.588;12.148;2024-01-27T10:00:52;4.80;;;2.05;;
11303;SDS011;5707;49.588;12.148;2024-01-27T10:03:20;5.75;;;2.20;;
11303;SDS011;5707;49.588;12.148;2024-01-27T10:05:47;7.00;;;2.33;;
11303;SDS011;5707;49.588;12.148;2024-01-27T10:08:13;7.53;;;2.03;;
11303;SDS011;5707;49.588;12.148;2024-01-27T10:10:39;13.40;;;2.22;;
11303;SDS011;5707;49.588;12.148;2024-01-27T10:13:04;5.30;;;2.38;;
11303;SDS011;5707;49.588;12.148;2024-01-27T10:15:31;5.93;;;2.55;;
11303;SDS011;5707;49.588;12.148;2024-01-27T10:18:06;10.45;;;3.70;;
11303;SDS011;5707;49.588;12.148;2024-01-27T10:20:32;7.03;;;2.17;;
11303;SDS011;5707;49.588;12.148;2024-01-27T10:22:58;7.90;;;2.08;;
11303;SDS011;5707;49.588;12.148;2024-01-27T10:25:38;8.43;;;2.55;;
11303;SDS011;5707;49.588;12.148;2024-01-27T10:28:07;6.28;;;2.55;;
11303;SDS011;5707;49.588;12.148;2024-01-27T10:30:34;5.40;;;2.53;;
11303;SDS011;5707;49.588;12.148;2024-01-27T10:33:00;4.97;;;1.95;;
11303;SDS011;5707;49.588;12.148;2024-01-27T10:35:25;4.43;;;1.90;;
11303;SDS011;5707;49.588;12.148;2024-01-27T10:37:54;7.97;;;2.28;;
11303;SDS011;5707;49.588;12.148;2024-01-27T10:40:21;7.82;;;2.05;;
11303;SDS011;5707;49.588;12.148;2024-01-27T10:42:57;3.78;;;2.17;;
11303;SDS011;5707;49.588;12.148;2024-01-27T10:45:27;7.90;;;2.28;;
11303;SDS011;5707;49.588;12.148;2024-01-27T10:48:04;7.90;;;2.58;;
11303;SDS011;5707;49.588;12.148;2024-01-27T10:50:33;6.78;;;1.80;;
11303;SDS011;5707;49.588;12.148;2024-01-27T10:53:04;5.85;;;2.17;;
11303;SDS011;5707;49.588;12.148;2024-01-27T10:55:34;3.42;;;2.05;;
11303;SDS011;5707;49.588;12.148;2024-01-27T10:58:01;7.72;;;1.65;;
11303;SDS011;5707;49.588;12.148;2024-01-27T11:00:27;4.63;;;1.73;;
11303;SDS011;5707;49.588;12.148;2024-01-27T11:02:55;5.22;;;2.05;;
11303;SDS011;5707;49.588;12.148;2024-01-27T11:05:24;7.90;;;2.00;;
11303;SDS011;5707;49.588;12.148;2024-01-27T11:07:51;4.88;;;1.92;;
11303;SDS011;5707;49.588;12.148;2024-01-27T11:10:18;5.97;;;2.35;;
11303;SDS011;5707;49.588;12.148;2024-01-27T11:12:44;8.10;;;2.10;;
11303;SDS011;5707;49.588;12.148;2024-01-27T11:15:12;4.55;;;1.50;;
11303;SDS011;5707;49.588;12.148;2024-01-27T11:17:41;6.07;;;1.83;;
11303;SDS011;5707;49.588;12.148;2024-01-27T11:20:07;8.25;;;2.50;;
11303;SDS011;5707;49.588;12.148;2024-01-27T11:22:36;6.45;;;1.95;;
11303;SDS011;5707;49.588;12.148;2024-01-27T11:25:14;5.10;;;1.75;;
11303;SDS011;5707;49.588;12.148;2024-01-27T11:27:42;7.75;;;2.28;;
11303;SDS011;5707;49.588;12.148;2024-01-27T11:30:28;5.82;;;1.98;;
11303;SDS011;5707;49.588;12.148;2024-01-27T11:33:00;3.10;;;1.40;;
11303;SDS011;5707;49.588;12.148;2024-01-27T11:35:26;4.40;;;1.63;;
11303;SDS011;5707;49.588;12.148;2024-01-27T11:37:51;5.88;;;1.88;;
11303;SDS011;5707;49.588;12.148;2024-01-27T11:40:17;7.57;;;1.90;;
11303;SDS011;5707;49.588;12.148;2024-01-27T11:42:43;7.50;;;2.15;;
11303;SDS011;5707;49.588;12.148;2024-01-27T11:45:18;6.38;;;1.50;;
11303;SDS011;5707;49.588;12.148;2024-01-27T11:47:43;8.68;;;2.58;;
11303;SDS011;5707;49.588;12.148;2024-01-27T11:50:09;5.38;;;1.90;;
11303;SDS011;5707;49.588;12.148;2024-01-27T11:52:36;4.53;;;1.92;;
11303;SDS011;5707;49.588;12.148;2024-01-27T11:55:02;4.63;;;1.88;;
11303;SDS011;5707;49.588;12.148;2024-01-27T11:57:28;6.28;;;1.90;;
11303;SDS011;5707;49.588;12.148;2024-01-27T11:59:54;4.28;;;1.70;;
11303;SDS011;5707;49.588;12.148;2024-01-27T12:02:20;6.20;;;1.80;;
11303;SDS011;5707;49.588;12.148;2024-01-27T12:04:49;4.45;;;1.67;;
11303;SDS011;5707;49.588;12.148;2024-01-27T12:07:15;5.90;;;1.75;;
11303;SDS011;5707;49.588;12.148;2024-01-27T12:09:43;3.33;;;1.60;;
11303;SDS011;5707;49.588;12.148;2024-01-27T12:12:10;5.13;;;1.60;;
11303;SDS011;5707;49.588;12.148;2024-01-27T12:14:38;4.30;;;1.45;;
11303;SDS011;5707;49.588;12.148;2024-01-27T12:17:07;4.57;;;1.70;;
11303;SDS011;5707;49.588;12.148;2024-01-27T12:19:34;7.47;;;1.80;;
11303;SDS011;5707;49.588;12.148;2024-01-27T12:21:59;4.97;;;1.50;;
11303;SDS011;5707;49.588;12.148;2024-01-27T12:24:25;7.72;;;1.75;;
11303;SDS011;5707;49.588;12.148;2024-01-27T12:26:50;3.22;;;1.50;;
11303;SDS011;5707;49.588;12.148;2024-01-27T12:29:16;7.80;;;2.30;;
11303;SDS011;5707;49.588;12.148;2024-01-27T12:31:44;6.68;;;1.77;;
11303;SDS011;5707;49.588;12.148;2024-01-27T12:34:10;9.02;;;1.38;;
11303;SDS011;5707;49.588;12.148;2024-01-27T12:36:40;5.45;;;1.90;;
11303;SDS011;5707;49.588;12.148;2024-01-27T12:39:09;5.22;;;1.88;;
11303;SDS011;5707;49.588;12.148;2024-01-27T12:41:35;5.82;;;1.67;;
11303;SDS011;5707;49.588;12.148;2024-01-27T12:44:01;8.07;;;1.98;;
11303;SDS011;5707;49.588;12.148;2024-01-27T12:46:27;5.18;;;2.13;;
11303;SDS011;5707;49.588;12.148;2024-01-27T12:48:53;4.65;;;2.10;;
11303;SDS011;5707;49.588;12.148;2024-01-27T12:51:18;6.47;;;3.50;;
11303;SDS011;5707;49.588;12.148;2024-01-27T12:53:44;5.20;;;1.88;;
11303;SDS011;5707;49.588;12.148;2024-01-27T12:56:14;5.18;;;1.90;;
11303;SDS011;5707;49.588;12.148;2024-01-27T12:58:40;6.63;;;2.15;;
11303;SDS011;5707;49.588;12.148;2024-01-27T13:01:06;3.65;;;1.70;;
11303;SDS011;5707;49.588;12.148;2024-01-27T13:03:33;5.57;;;1.70;;
11303;SDS011;5707;49.588;12.148;2024-01-27T13:05:59;3.55;;;1.70;;
11303;SDS011;5707;49.588;12.148;2024-01-27T13:08:26;5.07;;;1.85;;
11303;SDS011;5707;49.588;12.148;2024-01-27T13:10:52;4.97;;;1.88;;
11303;SDS011;5707;49.588;12.148;2024-01-27T13:13:17;7.68;;;1.70;;
11303;SDS011;5707;49.588;12.148;2024-01-27T13:15:44;4.13;;;1.70;;
11303;SDS011;5707;49.588;12.148;2024-01-27T13:18:09;4.00;;;1.55;;
11303;SDS011;5707;49.588;12.148;2024-01-27T13:20:35;4.70;;;1.80;;
11303;SDS011;5707;49.588;12.148;2024-01-27T13:23:01;4.65;;;1.70;;
11303;SDS011;5707;49.588;12.148;2024-01-27T13:25:27;6.00;;;1.75;;
11303;SDS011;5707;49.588;12.148;2024-01-27T13:27:53;3.97;;;1.83;;
11303;SDS011;5707;49.588;12.148;2024-01-27T13:30:18;6.60;;;2.28;;
11303;SDS011;5707;49.588;12.148;2024-01-27T13:32:44;3.95;;;1.77;;
11303;SDS011;5707;49.588;12.148;2024-01-27T13:35:10;5.15;;;1.95;;
11303;SDS011;5707;49.588;12.148;2024-01-27T13:37:36;7.07;;;2.17;;
11303;SDS011;5707;49.588;12.148;2024-01-27T13:40:05;7.10;;;2.13;;
11303;SDS011;5707;49.588;12.148;2024-01-27T13:42:32;5.07;;;2.42;;
11303;SDS011;5707;49.588;12.148;2024-01-27T13:44:58;3.20;;;1.77;;
11303;SDS011;5707;49.588;12.148;2024-01-27T13:47:24;4.88;;;1.75;;
11303;SDS011;5707;49.588;12.148;2024-01-27T13:49:49;5.95;;;2.03;;
11303;SDS011;5707;49.588;12.148;2024-01-27T13:52:16;5.75;;;1.75;;
11303;SDS011;5707;49.588;12.148;2024-01-27T13:54:42;4.13;;;1.58;;
11303;SDS011;5707;49.588;12.148;2024-01-27T13:57:08;3.53;;;1.63;;
11303;SDS011;5707;49.588;12.148;2024-01-27T13:59:35;3.83;;;1.73;;
11303;SDS011;5707;49.588;12.148;2024-01-27T14:02:01;4.97;;;1.45;;
11303;SDS011;5707;49.588;12.148;2024-01-27T14:04:27;5.50;;;1.42;;
11303;SDS011;5707;49.588;12.148;2024-01-27T14:06:53;4.90;;;1.73;;
11303;SDS011;5707;49.588;12.148;2024-01-27T14:09:19;4.38;;;2.60;;
11303;SDS011;5707;49.588;12.148;2024-01-27T14:11:46;5.07;;;2.03;;
11303;SDS011;5707;49.588;12.148;2024-01-27T14:14:11;5.18;;;1.58;;
11303;SDS011;5707;49.588;12.148;2024-01-27T14:16:37;5.30;;;1.90;;
11303;SDS011;5707;49.588;12.148;2024-01-27T14:19:03;6.07;;;2.03;;
11303;SDS011;5707;49.588;12.148;2024-01-27T14:21:28;5.57;;;1.60;;
11303;SDS011;5707;49.588;12.148;2024-01-27T14:23:54;4.53;;;1.42;;
11303;SDS011;5707;49.588;12.148;2024-01-27T14:26:28;4.13;;;1.75;;
11303;SDS011;5707;49.588;12.148;2024-01-27T14:28:53;5.10;;;1.90;;
11303;SDS011;5707;49.588;12.148;2024-01-27T14:31:20;5.18;;;2.15;;
11303;SDS011;5707;49.588;12.148;2024-01-27T14:33:45;3.38;;;1.42;;
11303;SDS011;5707;49.588;12.148;2024-01-27T14:36:11;8.23;;;2.10;;
11303;SDS011;5707;49.588;12.148;2024-01-27T14:38:37;5.10;;;1.60;;
11303;SDS011;5707;49.588;12.148;2024-01-27T14:41:03;5.30;;;1.80;;
11303;SDS011;5707;49.588;12.148;2024-01-27T14:43:30;6.70;;;1.58;;